sensor_id;sensor_type;location;lat;lon;timestamp;temperature;humidity
22765;DHT22;11549;50.852;3.816;2022-08-21T00:00:38;17.40;99.90
22765;DHT22;11549;50.852;3.816;2022-08-21T00:03:11;17.40;99.90
22765;DHT22;11549;50.852;3.816;2022-08-21T00:05:43;17.30;99.90
22765;DHT22;11549;50.852;3.816;2022-08-21T00:08:13;17.30;99.90
22765;DHT22;11549;50.852;3.816;2022-08-21T00:10:42;17.30;99.90
22765;DHT22;11549;50.852;3.816;2022-08-21T00:13:11;17.20;99.90
22765;DHT22;11549;50.852;3.816;2022-08-21T00:15:44;17.20;99.90
22765;DHT22;11549;50.852;3.816;2022-08-21T00:18:13;17.20;99.90
22765;DHT22;11549;50.852;3.816;2022-08-21T00:20:42;17.10;99.90
22765;DHT22;11549;50.852;3.816;2022-08-21T00:23:13;17.10;99.90
22765;DHT22;11549;50.852;3.816;2022-08-21T00:25:43;17.00;99.90
22765;DHT22;11549;50.852;3.816;2022-08-21T00:28:13;17.00;99.90
22765;DHT22;11549;50.852;3.816;2022-08-21T00:30:42;17.00;99.90
22765;DHT22;11549;50.852;3.816;2022-08-21T00:33:11;16.90;99.90
22765;DHT22;11549;50.852;3.816;2022-08-21T00:35:42;17.00;99.90
22765;DHT22;11549;50.852;3.816;2022-08-21T00:38:12;17.00;99.90
22765;DHT22;11549;50.852;3.816;2022-08-21T00:40:47;16.90;99.90
22765;DHT22;11549;50.852;3.816;2022-08-21T00:43:18;17.00;99.90
22765;DHT22;11549;50.852;3.816;2022-08-21T00:45:46;17.00;99.90
22765;DHT22;11549;50.852;3.816;2022-08-21T00:48:15;16.90;99.90
22765;DHT22;11549;50.852;3.816;2022-08-21T00:50:51;16.90;99.90
22765;DHT22;11549;50.852;3.816;2022-08-21T00:53:22;16.90;99.90
22765;DHT22;11549;50.852;3.816;2022-08-21T00:55:51;16.60;99.90
22765;DHT22;11549;50.852;3.816;2022-08-21T00:58:23;16.30;99.90
22765;DHT22;11549;50.852;3.816;2022-08-21T01:00:51;16.10;99.90
22765;DHT22;11549;50.852;3.816;2022-08-21T01:03:22;16.00;99.90
22765;DHT22;11549;50.852;3.816;2022-08-21T01:05:52;15.80;99.90
22765;DHT22;11549;50.852;3.816;2022-08-21T01:08:22;15.80;99.90
22765;DHT22;11549;50.852;3.816;2022-08-21T01:10:53;15.80;99.90
22765;DHT22;11549;50.852;3.816;2022-08-21T01:13:23;15.90;99.90
22765;DHT22;11549;50.852;3.816;2022-08-21T01:15:54;15.90;99.90
22765;DHT22;11549;50.852;3.816;2022-08-21T01:18:23;15.70;99.90
22765;DHT22;11549;50.852;3.816;2022-08-21T01:21:03;15.60;99.90
22765;DHT22;11549;50.852;3.816;2022-08-21T01:23:32;15.60;99.90
22765;DHT22;11549;50.852;3.816;2022-08-21T01:26:00;15.50;99.90
22765;DHT22;11549;50.852;3.816;2022-08-21T01:28:33;15.40;99.90
22765;DHT22;11549;50.852;3.816;2022-08-21T01:31:05;15.30;99.90
22765;DHT22;11549;50.852;3.816;2022-08-21T01:33:34;15.30;99.90
22765;DHT22;11549;50.852;3.816;2022-08-21T01:36:04;15.20;99.90
22765;DHT22;11549;50.852;3.816;2022-08-21T01:38:33;15.10;99.90
22765;DHT22;11549;50.852;3.816;2022-08-21T01:41:01;15.00;99.90
22765;DHT22;11549;50.852;3.816;2022-08-21T01:43:30;15.00;99.90
22765;DHT22;11549;50.852;3.816;2022-08-21T01:46:06;15.00;99.90
22765;DHT22;11549;50.852;3.816;2022-08-21T01:48:34;15.10;99.90
22765;DHT22;11549;50.852;3.816;2022-08-21T01:51:05;15.10;99.90
22765;DHT22;11549;50.852;3.816;2022-08-21T01:53:34;15.20;99.90
22765;DHT22;11549;50.852;3.816;2022-08-21T01:56:05;15.10;99.90
22765;DHT22;11549;50.852;3.816;2022-08-21T01:58:38;15.20;99.90
22765;DHT22;11549;50.852;3.816;2022-08-21T02:01:07;15.00;99.90
22765;DHT22;11549;50.852;3.816;2022-08-21T02:03:36;14.90;99.90
22765;DHT22;11549;50.852;3.816;2022-08-21T02:06:11;14.90;99.90
22765;DHT22;11549;50.852;3.816;2022-08-21T02:08:40;14.80;99.90
22765;DHT22;11549;50.852;3.816;2022-08-21T02:11:09;14.80;99.90
22765;DHT22;11549;50.852;3.816;2022-08-21T02:13:37;14.70;99.90
22765;DHT22;11549;50.852;3.816;2022-08-21T02:16:05;14.70;99.90
22765;DHT22;11549;50.852;3.816;2022-08-21T02:18:35;14.60;99.90
22765;DHT22;11549;50.852;3.816;2022-08-21T02:21:05;14.70;99.90
22765;DHT22;11549;50.852;3.816;2022-08-21T02:23:34;14.80;99.90
22765;DHT22;11549;50.852;3.816;2022-08-21T02:26:04;14.80;99.90
22765;DHT22;11549;50.852;3.816;2022-08-21T02:28:34;14.80;99.90
22765;DHT22;11549;50.852;3.816;2022-08-21T02:31:03;14.90;99.90
22765;DHT22;11549;50.852;3.816;2022-08-21T02:33:32;14.80;99.90
22765;DHT22;11549;50.852;3.816;2022-08-21T02:36:01;14.90;99.90
22765;DHT22;11549;50.852;3.816;2022-08-21T02:38:32;14.90;99.90
22765;DHT22;11549;50.852;3.816;2022-08-21T02:41:01;14.90;99.90
22765;DHT22;11549;50.852;3.816;2022-08-21T02:43:29;14.90;99.90
22765;DHT22;11549;50.852;3.816;2022-08-21T02:45:58;14.90;99.90
22765;DHT22;11549;50.852;3.816;2022-08-21T02:48:30;14.90;99.90
22765;DHT22;11549;50.852;3.816;2022-08-21T02:51:01;15.00;99.90
22765;DHT22;11549;50.852;3.816;2022-08-21T02:53:32;15.00;99.90
22765;DHT22;11549;50.852;3.816;2022-08-21T02:56:05;15.00;99.90
22765;DHT22;11549;50.852;3.816;2022-08-21T02:58:37;15.00;99.90
22765;DHT22;11549;50.852;3.816;2022-08-21T03:01:08;14.80;99.90
22765;DHT22;11549;50.852;3.816;2022-08-21T03:03:37;14.80;99.90
22765;DHT22;11549;50.852;3.816;2022-08-21T03:06:07;14.70;99.90
22765;DHT22;11549;50.852;3.816;2022-08-21T03:08:37;14.60;99.90
22765;DHT22;11549;50.852;3.816;2022-08-21T03:11:06;14.60;99.90
22765;DHT22;11549;50.852;3.816;2022-08-21T03:13:38;14.70;99.90
22765;DHT22;11549;50.852;3.816;2022-08-21T03:16:07;14.90;99.90
22765;DHT22;11549;50.852;3.816;2022-08-21T03:18:37;14.90;99.90
22765;DHT22;11549;50.852;3.816;2022-08-21T03:21:06;14.90;99.90
22765;DHT22;11549;50.852;3.816;2022-08-21T03:23:34;15.00;99.90
22765;DHT22;11549;50.852;3.816;2022-08-21T03:26:04;15.00;99.90
22765;DHT22;11549;50.852;3.816;2022-08-21T03:28:33;15.10;99.90
22765;DHT22;11549;50.852;3.816;2022-08-21T03:31:02;15.20;99.90
22765;DHT22;11549;50.852;3.816;2022-08-21T03:33:30;15.30;99.90
22765;DHT22;11549;50.852;3.816;2022-08-21T03:36:01;15.30;99.90
22765;DHT22;11549;50.852;3.816;2022-08-21T03:38:32;15.30;99.90
22765;DHT22;11549;50.852;3.816;2022-08-21T03:41:04;15.40;99.90
22765;DHT22;11549;50.852;3.816;2022-08-21T03:43:35;15.40;99.90
22765;DHT22;11549;50.852;3.816;2022-08-21T03:46:04;15.40;99.90
22765;DHT22;11549;50.852;3.816;2022-08-21T03:48:35;15.40;99.90
22765;DHT22;11549;50.852;3.816;2022-08-21T03:51:03;15.40;99.90
22765;DHT22;11549;50.852;3.816;2022-08-21T03:53:33;15.40;99.90
22765;DHT22;11549;50.852;3.816;2022-08-21T03:56:02;15.50;99.90
22765;DHT22;11549;50.852;3.816;2022-08-21T03:58:32;15.40;99.90
22765;DHT22;11549;50.852;3.816;2022-08-21T04:01:02;15.50;99.90
22765;DHT22;11549;50.852;3.816;2022-08-21T04:03:31;15.50;99.90
22765;DHT22;11549;50.852;3.816;2022-08-21T04:05:59;15.50;99.90
22765;DHT22;11549;50.852;3.816;2022-08-21T04:08:28;15.50;99.90
22765;DHT22;11549;50.852;3.816;2022-08-21T04:10:58;15.50;99.90
22765;DHT22;11549;50.852;3.816;2022-08-21T04:13:26;15.40;99.90
22765;DHT22;11549;50.852;3.816;2022-08-21T04:15:57;15.50;99.90
22765;DHT22;11549;50.852;3.816;2022-08-21T04:18:26;15.50;99.90
22765;DHT22;11549;50.852;3.816;2022-08-21T04:20:56;15.50;99.90
22765;DHT22;11549;50.852;3.816;2022-08-21T04:23:26;15.40;99.90
22765;DHT22;11549;50.852;3.816;2022-08-21T04:25:55;15.50;99.90
22765;DHT22;11549;50.852;3.816;2022-08-21T04:28:26;15.50;99.90
22765;DHT22;11549;50.852;3.816;2022-08-21T04:30:58;15.50;99.90
22765;DHT22;11549;50.852;3.816;2022-08-21T04:33:26;15.50;99.90
22765;DHT22;11549;50.852;3.816;2022-08-21T04:35:55;15.50;99.90
22765;DHT22;11549;50.852;3.816;2022-08-21T04:38:23;15.50;99.90
22765;DHT22;11549;50.852;3.816;2022-08-21T04:40:58;15.50;99.90
22765;DHT22;11549;50.852;3.816;2022-08-21T04:43:27;15.50;99.90
22765;DHT22;11549;50.852;3.816;2022-08-21T04:45:55;15.50;99.90
22765;DHT22;11549;50.852;3.816;2022-08-21T04:48:25;15.50;99.90
22765;DHT22;11549;50.852;3.816;2022-08-21T04:50:57;15.50;99.90
22765;DHT22;11549;50.852;3.816;2022-08-21T04:53:31;15.60;99.90
22765;DHT22;11549;50.852;3.816;2022-08-21T04:56:04;15.70;99.90
22765;DHT22;11549;50.852;3.816;2022-08-21T04:58:38;15.60;99.90
22765;DHT22;11549;50.852;3.816;2022-08-21T05:01:10;15.70;99.90
22765;DHT22;11549;50.852;3.816;2022-08-21T05:03:40;15.70;99.90
22765;DHT22;11549;50.852;3.816;2022-08-21T05:06:13;15.70;99.90
22765;DHT22;11549;50.852;3.816;2022-08-21T05:08:44;15.80;99.90
22765;DHT22;11549;50.852;3.816;2022-08-21T05:11:13;15.80;99.90
22765;DHT22;11549;50.852;3.816;2022-08-21T05:13:42;15.80;99.90
22765;DHT22;11549;50.852;3.816;2022-08-21T05:16:10;15.80;99.90
22765;DHT22;11549;50.852;3.816;2022-08-21T05:18:40;15.80;99.90
22765;DHT22;11549;50.852;3.816;2022-08-21T05:21:09;15.90;99.90
22765;DHT22;11549;50.852;3.816;2022-08-21T05:23:37;16.00;99.90
22765;DHT22;11549;50.852;3.816;2022-08-21T05:26:05;16.00;99.90
22765;DHT22;11549;50.852;3.816;2022-08-21T05:28:43;16.00;99.90
22765;DHT22;11549;50.852;3.816;2022-08-21T05:31:12;16.10;99.90
22765;DHT22;11549;50.852;3.816;2022-08-21T05:33:42;16.10;99.90
22765;DHT22;11549;50.852;3.816;2022-08-21T05:36:10;16.10;99.90
22765;DHT22;11549;50.852;3.816;2022-08-21T05:38:39;16.10;99.90
22765;DHT22;11549;50.852;3.816;2022-08-21T05:41:07;16.20;99.90
22765;DHT22;11549;50.852;3.816;2022-08-21T05:43:36;16.30;99.90
22765;DHT22;11549;50.852;3.816;2022-08-21T05:46:06;16.40;99.90
22765;DHT22;11549;50.852;3.816;2022-08-21T05:48:35;16.50;99.90
22765;DHT22;11549;50.852;3.816;2022-08-21T05:51:07;16.80;99.90
22765;DHT22;11549;50.852;3.816;2022-08-21T05:53:37;17.40;99.90
22765;DHT22;11549;50.852;3.816;2022-08-21T05:56:05;18.10;99.90
22765;DHT22;11549;50.852;3.816;2022-08-21T05:58:34;18.70;99.90
22765;DHT22;11549;50.852;3.816;2022-08-21T06:01:04;19.30;99.90
22765;DHT22;11549;50.852;3.816;2022-08-21T06:03:34;19.90;99.90
22765;DHT22;11549;50.852;3.816;2022-08-21T06:06:05;20.30;99.90
22765;DHT22;11549;50.852;3.816;2022-08-21T06:08:33;20.70;99.90
22765;DHT22;11549;50.852;3.816;2022-08-21T06:11:03;21.10;99.90
22765;DHT22;11549;50.852;3.816;2022-08-21T06:13:31;21.50;99.90
22765;DHT22;11549;50.852;3.816;2022-08-21T06:16:02;21.80;99.90
22765;DHT22;11549;50.852;3.816;2022-08-21T06:18:31;22.10;99.90
22765;DHT22;11549;50.852;3.816;2022-08-21T06:21:00;22.40;99.90
22765;DHT22;11549;50.852;3.816;2022-08-21T06:23:29;22.70;99.90
22765;DHT22;11549;50.852;3.816;2022-08-21T06:25:59;23.00;99.90
22765;DHT22;11549;50.852;3.816;2022-08-21T06:28:28;23.30;99.90
22765;DHT22;11549;50.852;3.816;2022-08-21T06:30:57;23.60;99.90
22765;DHT22;11549;50.852;3.816;2022-08-21T06:33:26;23.70;99.90
22765;DHT22;11549;50.852;3.816;2022-08-21T06:35:58;24.00;99.90
22765;DHT22;11549;50.852;3.816;2022-08-21T06:38:27;24.20;99.90
22765;DHT22;11549;50.852;3.816;2022-08-21T06:40:56;24.30;99.90
22765;DHT22;11549;50.852;3.816;2022-08-21T06:43:26;24.40;99.90
22765;DHT22;11549;50.852;3.816;2022-08-21T06:46:06;24.70;99.90
22765;DHT22;11549;50.852;3.816;2022-08-21T06:48:34;25.00;99.90
22765;DHT22;11549;50.852;3.816;2022-08-21T06:51:03;25.20;99.90
22765;DHT22;11549;50.852;3.816;2022-08-21T06:53:32;25.40;99.90
22765;DHT22;11549;50.852;3.816;2022-08-21T06:56:02;25.70;99.90
22765;DHT22;11549;50.852;3.816;2022-08-21T06:58:30;25.90;99.90
22765;DHT22;11549;50.852;3.816;2022-08-21T07:00:59;26.10;99.90
22765;DHT22;11549;50.852;3.816;2022-08-21T07:03:30;26.20;99.90
22765;DHT22;11549;50.852;3.816;2022-08-21T07:05:59;26.50;99.90
22765;DHT22;11549;50.852;3.816;2022-08-21T07:08:28;26.60;99.90
22765;DHT22;11549;50.852;3.816;2022-08-21T07:11:00;26.90;99.90
22765;DHT22;11549;50.852;3.816;2022-08-21T07:13:30;27.20;99.90
22765;DHT22;11549;50.852;3.816;2022-08-21T07:15:59;27.50;99.10
22765;DHT22;11549;50.852;3.816;2022-08-21T07:18:30;27.60;98.10
22765;DHT22;11549;50.852;3.816;2022-08-21T07:21:00;27.80;96.90
22765;DHT22;11549;50.852;3.816;2022-08-21T07:23:33;27.90;97.40
22765;DHT22;11549;50.852;3.816;2022-08-21T07:26:03;27.90;96.10
22765;DHT22;11549;50.852;3.816;2022-08-21T07:28:33;27.90;96.90
22765;DHT22;11549;50.852;3.816;2022-08-21T07:31:02;27.90;96.90
22765;DHT22;11549;50.852;3.816;2022-08-21T07:33:33;27.90;96.50
22765;DHT22;11549;50.852;3.816;2022-08-21T07:36:02;27.80;96.50
22765;DHT22;11549;50.852;3.816;2022-08-21T07:38:30;27.70;96.00
22765;DHT22;11549;50.852;3.816;2022-08-21T07:41:00;27.60;96.20
22765;DHT22;11549;50.852;3.816;2022-08-21T07:43:29;27.50;95.80
22765;DHT22;11549;50.852;3.816;2022-08-21T07:45:59;27.30;96.40
22765;DHT22;11549;50.852;3.816;2022-08-21T07:48:27;27.20;96.60
22765;DHT22;11549;50.852;3.816;2022-08-21T07:50:55;26.90;97.10
22765;DHT22;11549;50.852;3.816;2022-08-21T07:53:24;26.90;96.10
22765;DHT22;11549;50.852;3.816;2022-08-21T07:55:52;26.70;96.90
22765;DHT22;11549;50.852;3.816;2022-08-21T07:58:20;26.60;97.70
22765;DHT22;11549;50.852;3.816;2022-08-21T08:00:49;26.70;97.30
22765;DHT22;11549;50.852;3.816;2022-08-21T08:03:18;26.90;97.10
22765;DHT22;11549;50.852;3.816;2022-08-21T08:05:55;27.20;97.30
22765;DHT22;11549;50.852;3.816;2022-08-21T08:08:24;27.40;96.80
22765;DHT22;11549;50.852;3.816;2022-08-21T08:10:53;27.60;96.50
22765;DHT22;11549;50.852;3.816;2022-08-21T08:13:22;27.80;96.80
22765;DHT22;11549;50.852;3.816;2022-08-21T08:15:50;27.90;95.30
22765;DHT22;11549;50.852;3.816;2022-08-21T08:18:20;27.80;96.00
22765;DHT22;11549;50.852;3.816;2022-08-21T08:20:48;27.80;95.20
22765;DHT22;11549;50.852;3.816;2022-08-21T08:23:16;28.00;94.40
22765;DHT22;11549;50.852;3.816;2022-08-21T08:25:45;28.00;95.40
22765;DHT22;11549;50.852;3.816;2022-08-21T08:28:13;28.20;95.00
22765;DHT22;11549;50.852;3.816;2022-08-21T08:30:43;28.30;93.90
22765;DHT22;11549;50.852;3.816;2022-08-21T08:33:12;28.40;93.90
22765;DHT22;11549;50.852;3.816;2022-08-21T08:35:43;28.40;94.80
22765;DHT22;11549;50.852;3.816;2022-08-21T08:38:13;28.60;94.10
22765;DHT22;11549;50.852;3.816;2022-08-21T08:40:52;28.60;94.30
22765;DHT22;11549;50.852;3.816;2022-08-21T08:43:23;28.30;93.50
22765;DHT22;11549;50.852;3.816;2022-08-21T08:45:54;27.90;94.40
22765;DHT22;11549;50.852;3.816;2022-08-21T08:48:36;28.40;93.50
22765;DHT22;11549;50.852;3.816;2022-08-21T08:51:15;28.50;91.70
22765;DHT22;11549;50.852;3.816;2022-08-21T08:53:49;28.30;92.70
22765;DHT22;11549;50.852;3.816;2022-08-21T08:56:22;28.50;92.90
22765;DHT22;11549;50.852;3.816;2022-08-21T08:58:56;28.60;92.50
22765;DHT22;11549;50.852;3.816;2022-08-21T09:01:26;28.90;91.90
22765;DHT22;11549;50.852;3.816;2022-08-21T09:03:56;28.80;92.20
22765;DHT22;11549;50.852;3.816;2022-08-21T09:06:37;29.00;91.60
22765;DHT22;11549;50.852;3.816;2022-08-21T09:09:17;29.00;91.30
22765;DHT22;11549;50.852;3.816;2022-08-21T09:11:56;28.60;91.80
22765;DHT22;11549;50.852;3.816;2022-08-21T09:14:42;28.80;90.50
22765;DHT22;11549;50.852;3.816;2022-08-21T09:17:22;29.10;91.20
22765;DHT22;11549;50.852;3.816;2022-08-21T09:20:02;29.00;91.00
22765;DHT22;11549;50.852;3.816;2022-08-21T09:22:48;29.00;91.60
22765;DHT22;11549;50.852;3.816;2022-08-21T09:25:21;29.00;91.70
22765;DHT22;11549;50.852;3.816;2022-08-21T09:27:52;29.10;90.50
22765;DHT22;11549;50.852;3.816;2022-08-21T09:30:30;29.20;89.60
22765;DHT22;11549;50.852;3.816;2022-08-21T09:32:59;29.20;89.70
22765;DHT22;11549;50.852;3.816;2022-08-21T09:35:27;29.20;90.60
22765;DHT22;11549;50.852;3.816;2022-08-21T09:37:59;29.50;87.80
22765;DHT22;11549;50.852;3.816;2022-08-21T09:40:33;29.60;87.20
22765;DHT22;11549;50.852;3.816;2022-08-21T09:43:06;29.20;88.50
22765;DHT22;11549;50.852;3.816;2022-08-21T09:45:35;29.30;90.20
22765;DHT22;11549;50.852;3.816;2022-08-21T09:48:11;29.60;87.30
22765;DHT22;11549;50.852;3.816;2022-08-21T09:50:41;29.70;85.10
22765;DHT22;11549;50.852;3.816;2022-08-21T09:53:18;29.30;86.00
22765;DHT22;11549;50.852;3.816;2022-08-21T09:55:49;29.10;87.30
22765;DHT22;11549;50.852;3.816;2022-08-21T09:58:38;29.00;88.00
22765;DHT22;11549;50.852;3.816;2022-08-21T10:01:14;28.70;88.60
22765;DHT22;11549;50.852;3.816;2022-08-21T10:03:43;28.40;88.00
22765;DHT22;11549;50.852;3.816;2022-08-21T10:06:22;28.60;89.20
22765;DHT22;11549;50.852;3.816;2022-08-21T10:09:04;29.10;86.40
22765;DHT22;11549;50.852;3.816;2022-08-21T10:11:34;29.20;83.80
22765;DHT22;11549;50.852;3.816;2022-08-21T10:14:13;29.10;83.10
22765;DHT22;11549;50.852;3.816;2022-08-21T10:16:51;28.90;86.60
22765;DHT22;11549;50.852;3.816;2022-08-21T10:19:32;28.50;86.20
22765;DHT22;11549;50.852;3.816;2022-08-21T10:22:12;28.60;86.00
22765;DHT22;11549;50.852;3.816;2022-08-21T10:24:51;28.80;87.00
22765;DHT22;11549;50.852;3.816;2022-08-21T10:27:27;28.80;85.20
22765;DHT22;11549;50.852;3.816;2022-08-21T10:30:03;29.00;84.90
22765;DHT22;11549;50.852;3.816;2022-08-21T10:32:57;29.00;85.50
22765;DHT22;11549;50.852;3.816;2022-08-21T10:35:29;28.80;84.60
22765;DHT22;11549;50.852;3.816;2022-08-21T10:41:14;28.60;86.60
22765;DHT22;11549;50.852;3.816;2022-08-21T10:43:52;28.80;86.00
22765;DHT22;11549;50.852;3.816;2022-08-21T10:46:44;28.50;85.00
22765;DHT22;11549;50.852;3.816;2022-08-21T10:49:25;28.60;85.10
22765;DHT22;11549;50.852;3.816;2022-08-21T10:52:07;28.40;85.40
22765;DHT22;11549;50.852;3.816;2022-08-21T10:54:44;28.40;84.20
22765;DHT22;11549;50.852;3.816;2022-08-21T10:57:19;28.40;84.70
22765;DHT22;11549;50.852;3.816;2022-08-21T11:00:02;28.20;84.20
22765;DHT22;11549;50.852;3.816;2022-08-21T11:02:37;28.00;86.60
22765;DHT22;11549;50.852;3.816;2022-08-21T11:05:11;28.10;86.20
22765;DHT22;11549;50.852;3.816;2022-08-21T11:07:47;28.00;87.70
22765;DHT22;11549;50.852;3.816;2022-08-21T11:10:20;28.00;85.70
22765;DHT22;11549;50.852;3.816;2022-08-21T11:12:56;28.00;88.20
22765;DHT22;11549;50.852;3.816;2022-08-21T11:15:35;28.10;87.30
22765;DHT22;11549;50.852;3.816;2022-08-21T11:18:21;28.20;88.40
22765;DHT22;11549;50.852;3.816;2022-08-21T11:20:56;28.30;88.60
22765;DHT22;11549;50.852;3.816;2022-08-21T11:23:33;28.70;87.70
22765;DHT22;11549;50.852;3.816;2022-08-21T11:26:07;29.10;87.40
22765;DHT22;11549;50.852;3.816;2022-08-21T11:28:42;29.50;86.80
22765;DHT22;11549;50.852;3.816;2022-08-21T11:31:22;30.00;84.60
22765;DHT22;11549;50.852;3.816;2022-08-21T11:34:03;30.20;79.50
22765;DHT22;11549;50.852;3.816;2022-08-21T11:36:40;30.30;80.40
22765;DHT22;11549;50.852;3.816;2022-08-21T11:39:22;30.50;78.40
22765;DHT22;11549;50.852;3.816;2022-08-21T11:41:59;30.50;79.00
22765;DHT22;11549;50.852;3.816;2022-08-21T11:44:46;30.00;80.30
22765;DHT22;11549;50.852;3.816;2022-08-21T11:47:22;29.80;81.50
22765;DHT22;11549;50.852;3.816;2022-08-21T11:50:05;29.80;80.80
22765;DHT22;11549;50.852;3.816;2022-08-21T11:52:58;30.00;79.20
22765;DHT22;11549;50.852;3.816;2022-08-21T11:55:31;29.70;81.40
22765;DHT22;11549;50.852;3.816;2022-08-21T11:58:03;29.80;80.40
22765;DHT22;11549;50.852;3.816;2022-08-21T12:00:38;29.80;77.70
22765;DHT22;11549;50.852;3.816;2022-08-21T12:03:11;29.40;80.40
22765;DHT22;11549;50.852;3.816;2022-08-21T12:05:42;29.10;79.80
22765;DHT22;11549;50.852;3.816;2022-08-21T12:08:28;28.80;82.10
22765;DHT22;11549;50.852;3.816;2022-08-21T12:11:03;28.50;83.40
22765;DHT22;11549;50.852;3.816;2022-08-21T12:13:39;28.00;85.00
22765;DHT22;11549;50.852;3.816;2022-08-21T12:16:15;27.90;84.30
22765;DHT22;11549;50.852;3.816;2022-08-21T12:18:43;27.90;84.80
22765;DHT22;11549;50.852;3.816;2022-08-21T12:21:21;28.00;83.60
22765;DHT22;11549;50.852;3.816;2022-08-21T12:24:01;27.90;83.00
22765;DHT22;11549;50.852;3.816;2022-08-21T12:26:31;27.90;83.00
22765;DHT22;11549;50.852;3.816;2022-08-21T12:29:07;27.70;84.30
22765;DHT22;11549;50.852;3.816;2022-08-21T12:31:50;27.80;84.50
22765;DHT22;11549;50.852;3.816;2022-08-21T12:34:20;27.50;85.40
22765;DHT22;11549;50.852;3.816;2022-08-21T12:36:54;27.50;85.70
22765;DHT22;11549;50.852;3.816;2022-08-21T12:39:26;27.20;86.60
22765;DHT22;11549;50.852;3.816;2022-08-21T12:42:00;27.50;86.40
22765;DHT22;11549;50.852;3.816;2022-08-21T12:44:39;28.00;85.80
22765;DHT22;11549;50.852;3.816;2022-08-21T12:47:17;28.20;84.80
22765;DHT22;11549;50.852;3.816;2022-08-21T12:49:53;28.60;82.60
22765;DHT22;11549;50.852;3.816;2022-08-21T12:52:24;28.80;84.50
22765;DHT22;11549;50.852;3.816;2022-08-21T12:54:53;28.60;85.60
22765;DHT22;11549;50.852;3.816;2022-08-21T12:57:23;28.60;84.00
22765;DHT22;11549;50.852;3.816;2022-08-21T12:59:55;28.60;83.60
22765;DHT22;11549;50.852;3.816;2022-08-21T13:02:29;28.70;84.10
22765;DHT22;11549;50.852;3.816;2022-08-21T13:05:02;28.80;84.70
22765;DHT22;11549;50.852;3.816;2022-08-21T13:07:33;29.40;83.40
22765;DHT22;11549;50.852;3.816;2022-08-21T13:10:05;29.50;84.60
22765;DHT22;11549;50.852;3.816;2022-08-21T13:12:35;29.80;80.70
22765;DHT22;11549;50.852;3.816;2022-08-21T13:15:05;29.90;78.00
22765;DHT22;11549;50.852;3.816;2022-08-21T13:17:41;29.90;77.40
22765;DHT22;11549;50.852;3.816;2022-08-21T13:20:20;29.70;79.20
22765;DHT22;11549;50.852;3.816;2022-08-21T13:22:49;29.40;78.10
22765;DHT22;11549;50.852;3.816;2022-08-21T13:25:20;29.40;77.60
22765;DHT22;11549;50.852;3.816;2022-08-21T13:27:59;29.10;78.10
22765;DHT22;11549;50.852;3.816;2022-08-21T13:30:28;28.80;79.40
22765;DHT22;11549;50.852;3.816;2022-08-21T13:33:00;28.70;79.20
22765;DHT22;11549;50.852;3.816;2022-08-21T13:35:34;28.30;81.50
22765;DHT22;11549;50.852;3.816;2022-08-21T13:38:05;28.10;82.10
22765;DHT22;11549;50.852;3.816;2022-08-21T13:40:41;28.00;82.70
22765;DHT22;11549;50.852;3.816;2022-08-21T13:43:12;27.70;82.80
22765;DHT22;11549;50.852;3.816;2022-08-21T13:45:49;27.60;82.50
22765;DHT22;11549;50.852;3.816;2022-08-21T13:48:20;27.80;82.60
22765;DHT22;11549;50.852;3.816;2022-08-21T13:50:49;28.00;82.00
22765;DHT22;11549;50.852;3.816;2022-08-21T13:53:23;27.90;84.40
22765;DHT22;11549;50.852;3.816;2022-08-21T13:55:51;27.90;85.50
22765;DHT22;11549;50.852;3.816;2022-08-21T13:58:28;28.10;83.40
22765;DHT22;11549;50.852;3.816;2022-08-21T14:00:58;27.90;83.70
22765;DHT22;11549;50.852;3.816;2022-08-21T14:03:36;27.80;83.50
22765;DHT22;11549;50.852;3.816;2022-08-21T14:06:16;27.80;84.40
22765;DHT22;11549;50.852;3.816;2022-08-21T14:08:50;27.90;83.40
22765;DHT22;11549;50.852;3.816;2022-08-21T14:11:19;28.00;83.50
22765;DHT22;11549;50.852;3.816;2022-08-21T14:13:50;28.00;82.40
22765;DHT22;11549;50.852;3.816;2022-08-21T14:16:21;28.10;82.70
22765;DHT22;11549;50.852;3.816;2022-08-21T14:19:04;28.20;82.60
22765;DHT22;11549;50.852;3.816;2022-08-21T14:21:36;28.10;81.80
22765;DHT22;11549;50.852;3.816;2022-08-21T14:24:08;28.20;81.80
22765;DHT22;11549;50.852;3.816;2022-08-21T14:26:44;28.30;82.10
22765;DHT22;11549;50.852;3.816;2022-08-21T14:29:16;28.20;81.80
22765;DHT22;11549;50.852;3.816;2022-08-21T14:31:50;28.10;82.50
22765;DHT22;11549;50.852;3.816;2022-08-21T14:34:21;28.10;82.70
22765;DHT22;11549;50.852;3.816;2022-08-21T14:36:51;27.90;84.20
22765;DHT22;11549;50.852;3.816;2022-08-21T14:39:19;27.60;84.10
22765;DHT22;11549;50.852;3.816;2022-08-21T14:41:49;27.60;85.80
22765;DHT22;11549;50.852;3.816;2022-08-21T14:44:18;27.50;85.70
22765;DHT22;11549;50.852;3.816;2022-08-21T14:46:47;27.40;85.40
22765;DHT22;11549;50.852;3.816;2022-08-21T14:49:24;27.20;84.40
22765;DHT22;11549;50.852;3.816;2022-08-21T14:51:55;27.00;86.10
22765;DHT22;11549;50.852;3.816;2022-08-21T14:54:26;27.00;85.60
22765;DHT22;11549;50.852;3.816;2022-08-21T14:56:59;27.00;88.70
22765;DHT22;11549;50.852;3.816;2022-08-21T14:59:29;27.00;87.40
22765;DHT22;11549;50.852;3.816;2022-08-21T15:01:58;26.90;86.10
22765;DHT22;11549;50.852;3.816;2022-08-21T15:04:28;27.00;85.70
22765;DHT22;11549;50.852;3.816;2022-08-21T15:06:56;26.90;89.00
22765;DHT22;11549;50.852;3.816;2022-08-21T15:09:25;27.00;87.10
22765;DHT22;11549;50.852;3.816;2022-08-21T15:11:55;27.10;88.30
22765;DHT22;11549;50.852;3.816;2022-08-21T15:14:26;27.20;87.70
22765;DHT22;11549;50.852;3.816;2022-08-21T15:16:55;27.40;87.60
22765;DHT22;11549;50.852;3.816;2022-08-21T15:19:24;27.70;85.00
22765;DHT22;11549;50.852;3.816;2022-08-21T15:21:54;28.10;84.70
22765;DHT22;11549;50.852;3.816;2022-08-21T15:24:22;28.00;84.40
22765;DHT22;11549;50.852;3.816;2022-08-21T15:26:51;28.00;83.20
22765;DHT22;11549;50.852;3.816;2022-08-21T15:29:21;28.30;83.00
22765;DHT22;11549;50.852;3.816;2022-08-21T15:31:53;28.40;82.50
22765;DHT22;11549;50.852;3.816;2022-08-21T15:34:23;28.20;81.10
22765;DHT22;11549;50.852;3.816;2022-08-21T15:36:56;28.20;80.90
22765;DHT22;11549;50.852;3.816;2022-08-21T15:39:25;28.10;81.90
22765;DHT22;11549;50.852;3.816;2022-08-21T15:41:58;28.20;80.30
22765;DHT22;11549;50.852;3.816;2022-08-21T15:44:37;28.20;78.50
22765;DHT22;11549;50.852;3.816;2022-08-21T15:47:07;28.20;80.20
22765;DHT22;11549;50.852;3.816;2022-08-21T15:49:38;28.20;78.80
22765;DHT22;11549;50.852;3.816;2022-08-21T15:52:10;28.00;81.20
22765;DHT22;11549;50.852;3.816;2022-08-21T15:54:39;27.90;82.40
22765;DHT22;11549;50.852;3.816;2022-08-21T15:57:09;27.70;84.90
22765;DHT22;11549;50.852;3.816;2022-08-21T15:59:40;27.70;84.40
22765;DHT22;11549;50.852;3.816;2022-08-21T16:02:13;27.80;82.60